sensor_id;sensor_type;location;lat;lon;timestamp;P1;durP1;ratioP1;P2;durP2;ratioP2
2406;SDS011;37709;53.480;9.688;2023-02-22T00:01:53;130.07;;;28.60;;
2406;SDS011;37709;53.480;9.688;2023-02-22T00:04:37;77.83;;;23.30;;
2406;SDS011;37709;53.480;9.688;2023-02-22T00:07:07;193.90;;;31.77;;
2406;SDS011;37709;53.480;9.688;2023-02-22T00:09:34;184.00;;;30.50;;
2406;SDS011;37709;53.480;9.688;2023-02-22T00:12:02;95.47;;;23.27;;
2406;SDS011;37709;53.480;9.688;2023-02-22T00:14:29;183.57;;;32.80;;
2406;SDS011;37709;53.480;9.688;2023-02-22T00:16:56;194.67;;;32.47;;
2406;SDS011;37709;53.480;9.688;2023-02-22T00:19:25;185.60;;;32.10;;
2406;SDS011;37709;53.480;9.688;2023-02-22T00:21:55;123.00;;;28.10;;
2406;SDS011;37709;53.480;9.688;2023-02-22T00:24:23;148.13;;;29.00;;
2406;SDS011;37709;53.480;9.688;2023-02-22T00:26:51;130.70;;;26.23;;
2406;SDS011;37709;53.480;9.688;2023-02-22T00:29:22;155.77;;;29.30;;
2406;SDS011;37709;53.480;9.688;2023-02-22T00:31:50;194.17;;;30.67;;
2406;SDS011;37709;53.480;9.688;2023-02-22T00:34:18;187.20;;;30.57;;
2406;SDS011;37709;53.480;9.688;2023-02-22T00:36:46;161.83;;;31.50;;
2406;SDS011;37709;53.480;9.688;2023-02-22T00:39:14;188.37;;;31.77;;
2406;SDS011;37709;53.480;9.688;2023-02-22T00:41:42;166.13;;;28.70;;
2406;SDS011;37709;53.480;9.688;2023-02-22T00:44:09;151.73;;;30.43;;
2406;SDS011;37709;53.480;9.688;2023-02-22T00:46:38;147.83;;;29.00;;
2406;SDS011;37709;53.480;9.688;2023-02-22T00:49:05;155.47;;;28.23;;
2406;SDS011;37709;53.480;9.688;2023-02-22T00:51:33;188.23;;;31.07;;
2406;SDS011;37709;53.480;9.688;2023-02-22T00:54:00;156.50;;;30.20;;
2406;SDS011;37709;53.480;9.688;2023-02-22T00:56:27;158.10;;;29.57;;
2406;SDS011;37709;53.480;9.688;2023-02-22T00:58:55;145.43;;;30.10;;
2406;SDS011;37709;53.480;9.688;2023-02-22T01:01:22;175.73;;;31.63;;
2406;SDS011;37709;53.480;9.688;2023-02-22T01:03:50;118.90;;;26.50;;
2406;SDS011;37709;53.480;9.688;2023-02-22T01:06:18;120.67;;;27.40;;
2406;SDS011;37709;53.480;9.688;2023-02-22T01:08:46;156.30;;;30.10;;
2406;SDS011;37709;53.480;9.688;2023-02-22T01:11:15;150.40;;;29.87;;
2406;SDS011;37709;53.480;9.688;2023-02-22T01:13:43;170.80;;;29.57;;
2406;SDS011;37709;53.480;9.688;2023-02-22T01:16:13;177.77;;;30.83;;
2406;SDS011;37709;53.480;9.688;2023-02-22T01:18:40;151.07;;;30.70;;
2406;SDS011;37709;53.480;9.688;2023-02-22T01:21:08;143.40;;;31.40;;
2406;SDS011;37709;53.480;9.688;2023-02-22T01:23:35;166.40;;;32.60;;
2406;SDS011;37709;53.480;9.688;2023-02-22T01:26:03;168.70;;;32.70;;
2406;SDS011;37709;53.480;9.688;2023-02-22T01:28:32;156.10;;;31.97;;
2406;SDS011;37709;53.480;9.688;2023-02-22T01:31:01;157.60;;;31.63;;
2406;SDS011;37709;53.480;9.688;2023-02-22T01:33:29;164.37;;;32.13;;
2406;SDS011;37709;53.480;9.688;2023-02-22T01:35:56;135.07;;;31.13;;
2406;SDS011;37709;53.480;9.688;2023-02-22T01:38:26;193.43;;;33.83;;
2406;SDS011;37709;53.480;9.688;2023-02-22T01:40:53;143.57;;;31.90;;
2406;SDS011;37709;53.480;9.688;2023-02-22T01:43:28;153.30;;;33.47;;
2406;SDS011;37709;53.480;9.688;2023-02-22T01:46:04;122.13;;;28.03;;
2406;SDS011;37709;53.480;9.688;2023-02-22T01:48:59;134.80;;;31.80;;
2406;SDS011;37709;53.480;9.688;2023-02-22T01:51:41;122.40;;;28.50;;
2406;SDS011;37709;53.480;9.688;2023-02-22T01:54:16;195.93;;;31.90;;
2406;SDS011;37709;53.480;9.688;2023-02-22T01:56:59;104.07;;;25.80;;
2406;SDS011;37709;53.480;9.688;2023-02-22T01:59:39;134.43;;;30.20;;
2406;SDS011;37709;53.480;9.688;2023-02-22T02:02:10;177.20;;;33.10;;
2406;SDS011;37709;53.480;9.688;2023-02-22T02:04:39;187.93;;;34.20;;
2406;SDS011;37709;53.480;9.688;2023-02-22T02:07:09;154.93;;;28.20;;
2406;SDS011;37709;53.480;9.688;2023-02-22T02:09:42;151.40;;;31.40;;
2406;SDS011;37709;53.480;9.688;2023-02-22T02:12:15;129.00;;;30.33;;
2406;SDS011;37709;53.480;9.688;2023-02-22T02:14:44;175.67;;;31.80;;
2406;SDS011;37709;53.480;9.688;2023-02-22T02:17:12;143.60;;;30.60;;
2406;SDS011;37709;53.480;9.688;2023-02-22T02:22:49;209.63;;;31.57;;
2406;SDS011;37709;53.480;9.688;2023-02-22T02:25:50;112.60;;;26.07;;
2406;SDS011;37709;53.480;9.688;2023-02-22T02:35:11;109.37;;;26.67;;
2406;SDS011;37709;53.480;9.688;2023-02-22T02:37:55;105.07;;;25.73;;
2406;SDS011;37709;53.480;9.688;2023-02-22T02:40:45;153.27;;;29.37;;
2406;SDS011;37709;53.480;9.688;2023-02-22T02:46:35;164.47;;;28.37;;
2406;SDS011;37709;53.480;9.688;2023-02-22T02:49:14;104.23;;;26.50;;
2406;SDS011;37709;53.480;9.688;2023-02-22T02:51:46;104.80;;;26.47;;
2406;SDS011;37709;53.480;9.688;2023-02-22T02:54:18;156.87;;;29.07;;
2406;SDS011;37709;53.480;9.688;2023-02-22T02:56:46;106.10;;;24.63;;
2406;SDS011;37709;53.480;9.688;2023-02-22T02:59:22;110.20;;;25.33;;
2406;SDS011;37709;53.480;9.688;2023-02-22T03:05:08;74.73;;;21.67;;
2406;SDS011;37709;53.480;9.688;2023-02-22T03:10:42;99.87;;;24.23;;
2406;SDS011;37709;53.480;9.688;2023-02-22T03:19:07;92.73;;;24.77;;
2406;SDS011;37709;53.480;9.688;2023-02-22T03:22:00;111.50;;;24.37;;
2406;SDS011;37709;53.480;9.688;2023-02-22T03:24:36;91.00;;;24.53;;
2406;SDS011;37709;53.480;9.688;2023-02-22T03:27:37;119.87;;;24.17;;
2406;SDS011;37709;53.480;9.688;2023-02-22T03:30:18;103.93;;;23.53;;
2406;SDS011;37709;53.480;9.688;2023-02-22T03:32:59;92.43;;;22.57;;
2406;SDS011;37709;53.480;9.688;2023-02-22T03:35:43;134.13;;;26.13;;
2406;SDS011;37709;53.480;9.688;2023-02-22T03:38:17;130.37;;;28.40;;
2406;SDS011;37709;53.480;9.688;2023-02-22T03:40:48;110.30;;;24.60;;
2406;SDS011;37709;53.480;9.688;2023-02-22T03:43:24;116.60;;;26.83;;
2406;SDS011;37709;53.480;9.688;2023-02-22T03:45:59;108.40;;;26.37;;
2406;SDS011;37709;53.480;9.688;2023-02-22T03:48:40;114.23;;;27.90;;
2406;SDS011;37709;53.480;9.688;2023-02-22T03:51:15;118.57;;;27.93;;
2406;SDS011;37709;53.480;9.688;2023-02-22T03:53:49;157.67;;;28.80;;
2406;SDS011;37709;53.480;9.688;2023-02-22T03:56:21;149.57;;;27.83;;
2406;SDS011;37709;53.480;9.688;2023-02-22T03:58:53;155.60;;;30.27;;
2406;SDS011;37709;53.480;9.688;2023-02-22T04:01:21;154.10;;;29.40;;
2406;SDS011;37709;53.480;9.688;2023-02-22T04:03:49;118.47;;;28.53;;
2406;SDS011;37709;53.480;9.688;2023-02-22T04:06:17;126.17;;;30.30;;
2406;SDS011;37709;53.480;9.688;2023-02-22T04:08:44;135.63;;;29.50;;
2406;SDS011;37709;53.480;9.688;2023-02-22T04:11:12;150.40;;;32.57;;
2406;SDS011;37709;53.480;9.688;2023-02-22T04:13:40;164.17;;;33.40;;
2406;SDS011;37709;53.480;9.688;2023-02-22T04:16:09;145.70;;;32.63;;
2406;SDS011;37709;53.480;9.688;2023-02-22T04:18:36;150.57;;;32.17;;
2406;SDS011;37709;53.480;9.688;2023-02-22T04:21:05;188.93;;;33.27;;
2406;SDS011;37709;53.480;9.688;2023-02-22T04:23:37;149.43;;;32.47;;
2406;SDS011;37709;53.480;9.688;2023-02-22T04:26:04;188.10;;;37.53;;
2406;SDS011;37709;53.480;9.688;2023-02-22T04:28:32;174.30;;;35.43;;
2406;SDS011;37709;53.480;9.688;2023-02-22T04:31:17;146.63;;;33.97;;
2406;SDS011;37709;53.480;9.688;2023-02-22T04:33:45;156.80;;;32.30;;
2406;SDS011;37709;53.480;9.688;2023-02-22T04:36:16;162.83;;;35.03;;
2406;SDS011;37709;53.480;9.688;2023-02-22T04:38:44;164.23;;;35.77;;
2406;SDS011;37709;53.480;9.688;2023-02-22T04:41:12;146.70;;;35.00;;
2406;SDS011;37709;53.480;9.688;2023-02-22T04:43:41;144.83;;;36.30;;
2406;SDS011;37709;53.480;9.688;2023-02-22T04:46:16;131.70;;;32.20;;
2406;SDS011;37709;53.480;9.688;2023-02-22T04:48:44;124.27;;;34.30;;
2406;SDS011;37709;53.480;9.688;2023-02-22T04:51:13;155.37;;;33.77;;
2406;SDS011;37709;53.480;9.688;2023-02-22T04:53:51;151.60;;;36.00;;
2406;SDS011;37709;53.480;9.688;2023-02-22T04:56:19;158.70;;;34.10;;
2406;SDS011;37709;53.480;9.688;2023-02-22T04:58:46;156.40;;;34.17;;
2406;SDS011;37709;53.480;9.688;2023-02-22T05:01:14;198.97;;;38.90;;
2406;SDS011;37709;53.480;9.688;2023-02-22T05:03:42;151.87;;;33.20;;
2406;SDS011;37709;53.480;9.688;2023-02-22T05:06:10;152.77;;;35.13;;
2406;SDS011;37709;53.480;9.688;2023-02-22T05:08:40;150.87;;;32.97;;
2406;SDS011;37709;53.480;9.688;2023-02-22T05:11:08;151.00;;;34.90;;
2406;SDS011;37709;53.480;9.688;2023-02-22T05:13:35;156.13;;;36.53;;
2406;SDS011;37709;53.480;9.688;2023-02-22T05:16:03;170.07;;;35.10;;
2406;SDS011;37709;53.480;9.688;2023-02-22T05:18:30;144.50;;;34.73;;
2406;SDS011;37709;53.480;9.688;2023-02-22T05:20:58;171.70;;;35.17;;
2406;SDS011;37709;53.480;9.688;2023-02-22T05:23:25;155.97;;;34.03;;
2406;SDS011;37709;53.480;9.688;2023-02-22T05:25:52;167.27;;;35.50;;
2406;SDS011;37709;53.480;9.688;2023-02-22T05:28:20;154.23;;;33.80;;
2406;SDS011;37709;53.480;9.688;2023-02-22T05:30:47;159.97;;;33.33;;
2406;SDS011;37709;53.480;9.688;2023-02-22T05:33:14;144.67;;;35.50;;
2406;SDS011;37709;53.480;9.688;2023-02-22T05:35:42;137.53;;;34.33;;
2406;SDS011;37709;53.480;9.688;2023-02-22T05:38:10;130.67;;;30.67;;
2406;SDS011;37709;53.480;9.688;2023-02-22T05:40:41;171.07;;;35.10;;
2406;SDS011;37709;53.480;9.688;2023-02-22T05:43:09;166.83;;;34.97;;
2406;SDS011;37709;53.480;9.688;2023-02-22T05:45:36;138.80;;;32.40;;
2406;SDS011;37709;53.480;9.688;2023-02-22T05:48:04;175.30;;;44.80;;
2406;SDS011;37709;53.480;9.688;2023-02-22T05:50:31;168.87;;;37.57;;
2406;SDS011;37709;53.480;9.688;2023-02-22T05:52:59;160.90;;;36.13;;
2406;SDS011;37709;53.480;9.688;2023-02-22T05:55:27;129.10;;;34.23;;
2406;SDS011;37709;53.480;9.688;2023-02-22T05:57:54;162.40;;;34.73;;
2406;SDS011;37709;53.480;9.688;2023-02-22T06:02:55;152.70;;;33.67;;
2406;SDS011;37709;53.480;9.688;2023-02-22T06:05:24;131.30;;;34.33;;
2406;SDS011;37709;53.480;9.688;2023-02-22T06:07:53;155.87;;;35.63;;
2406;SDS011;37709;53.480;9.688;2023-02-22T06:10:21;146.67;;;34.00;;
2406;SDS011;37709;53.480;9.688;2023-02-22T06:12:49;153.37;;;36.20;;
2406;SDS011;37709;53.480;9.688;2023-02-22T06:15:18;114.90;;;32.47;;
2406;SDS011;37709;53.480;9.688;2023-02-22T06:17:46;125.60;;;32.77;;
2406;SDS011;37709;53.480;9.688;2023-02-22T06:20:15;156.53;;;34.63;;
2406;SDS011;37709;53.480;9.688;2023-02-22T06:22:48;152.35;;;36.95;;
2406;SDS011;37709;53.480;9.688;2023-02-22T06:25:21;135.80;;;35.63;;
2406;SDS011;37709;53.480;9.688;2023-02-22T06:27:49;190.05;;;47.35;;
2406;SDS011;37709;53.480;9.688;2023-02-22T06:30:19;175.97;;;39.00;;
2406;SDS011;37709;53.480;9.688;2023-02-22T06:32:48;174.57;;;37.23;;
2406;SDS011;37709;53.480;9.688;2023-02-22T06:35:15;164.40;;;37.43;;
2406;SDS011;37709;53.480;9.688;2023-02-22T06:37:44;142.87;;;34.30;;
2406;SDS011;37709;53.480;9.688;2023-02-22T06:40:12;127.50;;;33.77;;
2406;SDS011;37709;53.480;9.688;2023-02-22T06:42:40;152.20;;;34.00;;
2406;SDS011;37709;53.480;9.688;2023-02-22T06:45:08;190.27;;;35.90;;
2406;SDS011;37709;53.480;9.688;2023-02-22T06:47:39;141.77;;;32.90;;
2406;SDS011;37709;53.480;9.688;2023-02-22T06:50:21;138.77;;;32.43;;
2406;SDS011;37709;53.480;9.688;2023-02-22T06:52:50;141.37;;;31.57;;
2406;SDS011;37709;53.480;9.688;2023-02-22T06:55:19;202.98;;;42.38;;
2406;SDS011;37709;53.480;9.688;2023-02-22T06:57:48;143.07;;;34.40;;
2406;SDS011;37709;53.480;9.688;2023-02-22T07:00:17;148.53;;;33.43;;
2406;SDS011;37709;53.480;9.688;2023-02-22T07:02:45;120.60;;;29.73;;
2406;SDS011;37709;53.480;9.688;2023-02-22T07:05:15;126.47;;;29.80;;
2406;SDS011;37709;53.480;9.688;2023-02-22T07:07:44;149.77;;;31.80;;
2406;SDS011;37709;53.480;9.688;2023-02-22T07:10:45;159.07;;;30.57;;
2406;SDS011;37709;53.480;9.688;2023-02-22T07:13:06;136.90;;;30.70;;
2406;SDS011;37709;53.480;9.688;2023-02-22T07:15:34;124.87;;;29.50;;
2406;SDS011;37709;53.480;9.688;2023-02-22T07:18:01;135.40;;;30.50;;
2406;SDS011;37709;53.480;9.688;2023-02-22T07:20:29;104.27;;;29.30;;
2406;SDS011;37709;53.480;9.688;2023-02-22T07:22:58;94.80;;;28.93;;
2406;SDS011;37709;53.480;9.688;2023-02-22T07:25:26;92.30;;;27.80;;
2406;SDS011;37709;53.480;9.688;2023-02-22T07:27:53;101.63;;;29.17;;
2406;SDS011;37709;53.480;9.688;2023-02-22T07:30:22;94.87;;;28.77;;
2406;SDS011;37709;53.480;9.688;2023-02-22T07:32:57;82.37;;;27.70;;
2406;SDS011;37709;53.480;9.688;2023-02-22T07:35:45;83.77;;;27.70;;
2406;SDS011;37709;53.480;9.688;2023-02-22T07:38:14;95.68;;;31.52;;
2406;SDS011;37709;53.480;9.688;2023-02-22T07:40:43;86.27;;;30.37;;
2406;SDS011;37709;53.480;9.688;2023-02-22T07:43:19;77.97;;;28.87;;
2406;SDS011;37709;53.480;9.688;2023-02-22T07:45:48;72.90;;;27.40;;
2406;SDS011;37709;53.480;9.688;2023-02-22T07:48:17;77.20;;;29.33;;
2406;SDS011;37709;53.480;9.688;2023-02-22T07:50:45;77.20;;;28.83;;
2406;SDS011;37709;53.480;9.688;2023-02-22T07:53:15;78.37;;;29.10;;
2406;SDS011;37709;53.480;9.688;2023-02-22T07:55:47;73.27;;;29.70;;
2406;SDS011;37709;53.480;9.688;2023-02-22T07:58:18;73.83;;;28.00;;
2406;SDS011;37709;53.480;9.688;2023-02-22T08:00:48;69.90;;;27.93;;
2406;SDS011;37709;53.480;9.688;2023-02-22T08:03:16;60.00;;;22.97;;
2406;SDS011;37709;53.480;9.688;2023-02-22T08:05:46;57.97;;;26.33;;
2406;SDS011;37709;53.480;9.688;2023-02-22T08:08:16;50.40;;;24.70;;
2406;SDS011;37709;53.480;9.688;2023-02-22T08:10:49;46.77;;;23.77;;
2406;SDS011;37709;53.480;9.688;2023-02-22T08:13:18;47.83;;;24.07;;
2406;SDS011;37709;53.480;9.688;2023-02-22T08:15:46;47.43;;;23.00;;
2406;SDS011;37709;53.480;9.688;2023-02-22T08:18:16;40.03;;;21.40;;
2406;SDS011;37709;53.480;9.688;2023-02-22T08:20:45;39.23;;;20.50;;
2406;SDS011;37709;53.480;9.688;2023-02-22T08:23:14;32.03;;;19.60;;
2406;SDS011;37709;53.480;9.688;2023-02-22T08:25:42;33.53;;;19.80;;
2406;SDS011;37709;53.480;9.688;2023-02-22T08:28:11;35.47;;;19.90;;
2406;SDS011;37709;53.480;9.688;2023-02-22T08:30:41;33.07;;;19.00;;
2406;SDS011;37709;53.480;9.688;2023-02-22T08:33:13;31.83;;;18.70;;
2406;SDS011;37709;53.480;9.688;2023-02-22T08:35:42;29.33;;;18.83;;
2406;SDS011;37709;53.480;9.688;2023-02-22T08:40:43;30.87;;;18.17;;
2406;SDS011;37709;53.480;9.688;2023-02-22T08:43:10;27.03;;;17.80;;
2406;SDS011;37709;53.480;9.688;2023-02-22T08:45:39;28.17;;;16.90;;
2406;SDS011;37709;53.480;9.688;2023-02-22T08:48:07;26.53;;;17.10;;
2406;SDS011;37709;53.480;9.688;2023-02-22T08:50:34;26.50;;;16.63;;
2406;SDS011;37709;53.480;9.688;2023-02-22T08:53:02;26.20;;;16.60;;
2406;SDS011;37709;53.480;9.688;2023-02-22T08:55:34;23.27;;;14.33;;
2406;SDS011;37709;53.480;9.688;2023-02-22T08:58:03;21.20;;;14.97;;
2406;SDS011;37709;53.480;9.688;2023-02-22T09:00:31;24.13;;;15.10;;
2406;SDS011;37709;53.480;9.688;2023-02-22T09:03:00;20.60;;;14.80;;
2406;SDS011;37709;53.480;9.688;2023-02-22T09:05:31;23.17;;;14.53;;
2406;SDS011;37709;53.480;9.688;2023-02-22T09:07:59;18.57;;;12.93;;
2406;SDS011;37709;53.480;9.688;2023-02-22T09:10:28;19.03;;;13.80;;
2406;SDS011;37709;53.480;9.688;2023-02-22T09:12:57;22.90;;;15.90;;
2406;SDS011;37709;53.480;9.688;2023-02-22T09:15:26;20.90;;;14.90;;
2406;SDS011;37709;53.480;9.688;2023-02-22T09:17:55;23.70;;;15.00;;
2406;SDS011;37709;53.480;9.688;2023-02-22T09:20:23;19.10;;;12.63;;
2406;SDS011;37709;53.480;9.688;2023-02-22T09:22:51;19.53;;;12.83;;
2406;SDS011;37709;53.480;9.688;2023-02-22T09:25:19;19.50;;;13.20;;
2406;SDS011;37709;53.480;9.688;2023-02-22T09:27:48;17.87;;;12.87;;
2406;SDS011;37709;53.480;9.688;2023-02-22T09:30:23;17.37;;;12.17;;
2406;SDS011;37709;53.480;9.688;2023-02-22T09:32:59;20.67;;;13.40;;
2406;SDS011;37709;53.480;9.688;2023-02-22T09:35:29;16.83;;;11.63;;
2406;SDS011;37709;53.480;9.688;2023-02-22T09:37:57;16.87;;;12.17;;
2406;SDS011;37709;53.480;9.688;2023-02-22T09:40:27;19.20;;;14.17;;
2406;SDS011;37709;53.480;9.688;2023-02-22T09:45:42;18.07;;;12.97;;
2406;SDS011;37709;53.480;9.688;2023-02-22T09:48:32;18.47;;;12.90;;
2406;SDS011;37709;53.480;9.688;2023-02-22T09:51:02;22.47;;;14.30;;
2406;SDS011;37709;53.480;9.688;2023-02-22T09:53:41;18.17;;;13.60;;
2406;SDS011;37709;53.480;9.688;2023-02-22T09:56:13;16.67;;;12.57;;
2406;SDS011;37709;53.480;9.688;2023-02-22T09:58:45;19.93;;;14.17;;
2406;SDS011;37709;53.480;9.688;2023-02-22T10:01:18;21.33;;;14.00;;
2406;SDS011;37709;53.480;9.688;2023-02-22T10:03:54;19.47;;;14.37;;
2406;SDS011;37709;53.480;9.688;2023-02-22T10:06:33;19.02;;;15.35;;
2406;SDS011;37709;53.480;9.688;2023-02-22T10:09:02;19.93;;;14.13;;
2406;SDS011;37709;53.480;9.688;2023-02-22T10:11:43;22.50;;;17.85;;
2406;SDS011;37709;53.480;9.688;2023-02-22T10:14:25;20.50;;;15.80;;
2406;SDS011;37709;53.480;9.688;2023-02-22T10:25:39;19.20;;;15.13;;
2406;SDS011;37709;53.480;9.688;2023-02-22T10:28:12;17.03;;;13.80;;
2406;SDS011;37709;53.480;9.688;2023-02-22T10:30:52;15.90;;;14.20;;
2406;SDS011;37709;53.480;9.688;2023-02-22T10:33:38;17.33;;;14.47;;
2406;SDS011;37709;53.480;9.688;2023-02-22T10:36:20;18.80;;;14.10;;
2406;SDS011;37709;53.480;9.688;2023-02-22T10:38:59;17.60;;;15.17;;
2406;SDS011;37709;53.480;9.688;2023-02-22T10:41:37;17.53;;;13.60;;
2406;SDS011;37709;53.480;9.688;2023-02-22T10:44:10;13.20;;;11.60;;
2406;SDS011;37709;53.480;9.688;2023-02-22T10:46:38;13.60;;;11.53;;
2406;SDS011;37709;53.480;9.688;2023-02-22T10:49:07;16.70;;;14.40;;
2406;SDS011;37709;53.480;9.688;2023-02-22T10:51:38;15.87;;;13.97;;
2406;SDS011;37709;53.480;9.688;2023-02-22T10:56:45;20.30;;;14.40;;
2406;SDS011;37709;53.480;9.688;2023-02-22T10:59:28;16.77;;;12.57;;
2406;SDS011;37709;53.480;9.688;2023-02-22T11:02:07;15.07;;;12.73;;
2406;SDS011;37709;53.480;9.688;2023-02-22T11:07:25;15.93;;;13.23;;
2406;SDS011;37709;53.480;9.688;2023-02-22T11:10:03;16.03;;;12.93;;
2406;SDS011;37709;53.480;9.688;2023-02-22T11:12:35;18.57;;;14.10;;
2406;SDS011;37709;53.480;9.688;2023-02-22T11:17:51;17.07;;;14.10;;
2406;SDS011;37709;53.480;9.688;2023-02-22T11:20:21;16.50;;;13.30;;
2406;SDS011;37709;53.480;9.688;2023-02-22T11:22:57;16.83;;;13.43;;
2406;SDS011;37709;53.480;9.688;2023-02-22T11:25:31;15.70;;;13.37;;
2406;SDS011;37709;53.480;9.688;2023-02-22T11:28:08;18.20;;;14.07;;
2406;SDS011;37709;53.480;9.688;2023-02-22T11:30:40;14.33;;;11.53;;
2406;SDS011;37709;53.480;9.688;2023-02-22T11:33:21;15.03;;;12.23;;
2406;SDS011;37709;53.480;9.688;2023-02-22T11:35:53;15.27;;;12.53;;
2406;SDS011;37709;53.480;9.688;2023-02-22T11:38:26;15.77;;;13.50;;
2406;SDS011;37709;53.480;9.688;2023-02-22T11:41:11;17.47;;;13.33;;
2406;SDS011;37709;53.480;9.688;2023-02-22T11:43:45;15.43;;;13.63;;
2406;SDS011;37709;53.480;9.688;2023-02-22T11:49:00;16.30;;;12.20;;
2406;SDS011;37709;53.480;9.688;2023-02-22T11:54:15;15.30;;;12.50;;
2406;SDS011;37709;53.480;9.688;2023-02-22T12:00:01;13.47;;;10.97;;
2406;SDS011;37709;53.480;9.688;2023-02-22T12:02:48;13.83;;;11.67;;
2406;SDS011;37709;53.480;9.688;2023-02-22T12:08:33;13.60;;;11.10;;
2406;SDS011;37709;53.480;9.688;2023-02-22T12:16:37;13.77;;;11.13;;
2406;SDS011;37709;53.480;9.688;2023-02-22T12:19:36;14.67;;;11.80;;
2406;SDS011;37709;53.480;9.688;2023-02-22T12:22:16;15.47;;;12.70;;
2406;SDS011;37709;53.480;9.688;2023-02-22T12:24:48;15.27;;;11.93;;
2406;SDS011;37709;53.480;9.688;2023-02-22T12:27:51;11.13;;;9.70;;
2406;SDS011;37709;53.480;9.688;2023-02-22T12:30:22;11.20;;;9.70;;
2406;SDS011;37709;53.480;9.688;2023-02-22T12:32:56;11.70;;;9.67;;
2406;SDS011;37709;53.480;9.688;2023-02-22T12:35:27;11.50;;;9.70;;
2406;SDS011;37709;53.480;9.688;2023-02-22T12:40:51;11.73;;;9.17;;
2406;SDS011;37709;53.480;9.688;2023-02-22T12:46:05;11.47;;;9.20;;
2406;SDS011;37709;53.480;9.688;2023-02-22T12:48:59;12.30;;;9.97;;
2406;SDS011;37709;53.480;9.688;2023-02-22T12:51:59;11.83;;;8.50;;
2406;SDS011;37709;53.480;9.688;2023-02-22T12:54:51;11.73;;;7.93;;
2406;SDS011;37709;53.480;9.688;2023-02-22T12:57:29;11.20;;;8.50;;
2406;SDS011;37709;53.480;9.688;2023-02-22T13:00:32;10.63;;;8.43;;
2406;SDS011;37709;53.480;9.688;2023-02-22T13:03:05;11.43;;;10.07;;
2406;SDS011;37709;53.480;9.688;2023-02-22T13:12:07;12.13;;;8.63;;
2406;SDS011;37709;53.480;9.688;2023-02-22T13:26:28;14.70;;;9.13;;
2406;SDS011;37709;53.480;9.688;2023-02-22T13:29:09;9.90;;;7.60;;
2406;SDS011;37709;53.480;9.688;2023-02-22T13:34:21;9.23;;;7.47;;
2406;SDS011;37709;53.480;9.688;2023-02-22T13:37:17;10.50;;;8.20;;
2406;SDS011;37709;53.480;9.688;2023-02-22T13:40:17;9.63;;;8.23;;
2406;SDS011;37709;53.480;9.688;2023-02-22T13:43:16;12.10;;;9.77;;
2406;SDS011;37709;53.480;9.688;2023-02-22T13:52:07;11.98;;;10.68;;
2406;SDS011;37709;53.480;9.688;2023-02-22T13:54:43;12.50;;;11.07;;
2406;SDS011;37709;53.480;9.688;2023-02-22T13:57:18;13.47;;;10.27;;
2406;SDS011;37709;53.480;9.688;2023-02-22T14:02:57;11.60;;;9.57;;
2406;SDS011;37709;53.480;9.688;2023-02-22T14:10:57;10.70;;;9.27;;
2406;SDS011;37709;53.480;9.688;2023-02-22T14:13:29;10.50;;;8.40;;
2406;SDS011;37709;53.480;9.688;2023-02-22T14:18:27;11.03;;;8.10;;
2406;SDS011;37709;53.480;9.688;2023-02-22T14:23:39;10.50;;;9.13;;
2406;SDS011;37709;53.480;9.688;2023-02-22T14:36:53;10.80;;;8.77;;
2406;SDS011;37709;53.480;9.688;2023-02-22T14:39:32;11.57;;;8.40;;
2406;SDS011;37709;53.480;9.688;2023-02-22T14:42:18;9.60;;;7.80;;
2406;SDS011;37709;53.480;9.688;2023-02-22T14:44:51;9.90;;;8.07;;
2406;SDS011;37709;53.480;9.688;2023-02-22T14:47:40;8.30;;;7.40;;
2406;SDS011;37709;53.480;9.688;2023-02-22T14:50:38;9.60;;;7.63;;
2406;SDS011;37709;53.480;9.688;2023-02-22T14:56:03;6.80;;;5.60;;
2406;SDS011;37709;53.480;9.688;2023-02-22T14:58:37;7.77;;;6.40;;
2406;SDS011;37709;53.480;9.688;2023-02-22T15:04:28;7.90;;;5.77;;
2406;SDS011;37709;53.480;9.688;2023-02-22T15:06:59;7.63;;;5.53;;
2406;SDS011;37709;53.480;9.688;2023-02-22T15:09:33;7.40;;;5.77;;
2406;SDS011;37709;53.480;9.688;2023-02-22T15:14:31;6.17;;;5.33;;
2406;SDS011;37709;53.480;9.688;2023-02-22T15:17:11;6.13;;;5.23;;
2406;SDS011;37709;53.480;9.688;2023-02-22T15:19:44;6.67;;;5.30;;
2406;SDS011;37709;53.480;9.688;2023-02-22T15:22:21;6.10;;;5.40;;
2406;SDS011;37709;53.480;9.688;2023-02-22T15:27:27;5.50;;;4.90;;
2406;SDS011;37709;53.480;9.688;2023-02-22T15:29:58;5.97;;;4.67;;
2406;SDS011;37709;53.480;9.688;2023-02-22T15:32:34;7.47;;;5.60;;
2406;SDS011;37709;53.480;9.688;2023-02-22T15:35:18;7.87;;;6.07;;
2406;SDS011;37709;53.480;9.688;2023-02-22T15:38:01;7.93;;;5.50;;
2406;SDS011;37709;53.480;9.688;2023-02-22T15:40:32;6.47;;;5.13;;
2406;SDS011;37709;53.480;9.688;2023-02-22T15:43:01;8.27;;;5.80;;
2406;SDS011;37709;53.480;9.688;2023-02-22T15:45:34;8.43;;;6.30;;
2406;SDS011;37709;53.480;9.688;2023-02-22T15:48:11;6.97;;;5.80;;
2406;SDS011;37709;53.480;9.688;2023-02-22T15:53:38;8.30;;;6.73;;
2406;SDS011;37709;53.480;9.688;2023-02-22T15:56:08;8.33;;;6.67;;
2406;SDS011;37709;53.480;9.688;2023-02-22T15:58:41;8.60;;;7.37;;
2406;SDS011;37709;53.480;9.688;2023-02-22T16:01:13;8.83;;;7.30;;
2406;SDS011;37709;53.480;9.688;2023-02-22T16:06:13;9.43;;;7.67;;
2406;SDS011;37709;53.480;9.688;2023-02-22T16:08:57;10.23;;;7.77;;
2406;SDS011;37709;53.480;9.688;2023-02-22T16:11:30;10.77;;;8.50;;
2406;SDS011;37709;53.480;9.688;2023-02-22T16:14:00;11.73;;;8.53;;
2406;SDS011;37709;53.480;9.688;2023-02-22T16:16:31;10.63;;;9.20;;
2406;SDS011;37709;53.480;9.688;2023-02-22T16:21:53;13.77;;;10.17;;
2406;SDS011;37709;53.480;9.688;2023-02-22T16:24:30;13.17;;;9.67;;
2406;SDS011;37709;53.480;9.688;2023-02-22T16:29:32;9.70;;;8.60;;
2406;SDS011;37709;53.480;9.688;2023-02-22T16:31:59;11.80;;;10.43;;
2406;SDS011;37709;53.480;9.688;2023-02-22T16:34:27;11.53;;;10.30;;
2406;SDS011;37709;53.480;9.688;2023-02-22T16:36:55;12.53;;;10.40;;
2406;SDS011;37709;53.480;9.688;2023-02-22T16:39:25;13.77;;;11.03;;
2406;SDS011;37709;53.480;9.688;2023-02-22T16:41:58;17.10;;;11.43;;
2406;SDS011;37709;53.480;9.688;2023-02-22T16:44:27;14.27;;;11.37;;
2406;SDS011;37709;53.480;9.688;2023-02-22T16:46:55;13.23;;;11.83;;
2406;SDS011;37709;53.480;9.688;2023-02-22T16:49:24;14.87;;;12.13;;
2406;SDS011;37709;53.480;9.688;2023-02-22T16:51:53;13.47;;;11.37;;
2406;SDS011;37709;53.480;9.688;2023-02-22T16:54:38;14.27;;;11.83;;
2406;SDS011;37709;53.480;9.688;2023-02-22T16:57:09;13.10;;;11.67;;
2406;SDS011;37709;53.480;9.688;2023-02-22T16:59:43;12.47;;;11.17;;
2406;SDS011;37709;53.480;9.688;2023-02-22T17:02:13;13.37;;;11.80;;
2406;SDS011;37709;53.480;9.688;2023-02-22T17:04:41;14.53;;;12.10;;
2406;SDS011;37709;53.480;9.688;2023-02-22T17:07:19;14.10;;;11.23;;
2406;SDS011;37709;53.480;9.688;2023-02-22T17:09:49;17.33;;;12.93;;
2406;SDS011;37709;53.480;9.688;2023-02-22T17:12:16;15.47;;;12.80;;
2406;SDS011;37709;53.480;9.688;2023-02-22T17:14:44;14.23;;;12.43;;
2406;SDS011;37709;53.480;9.688;2023-02-22T17:17:12;15.50;;;11.80;;
2406;SDS011;37709;53.480;9.688;2023-02-22T17:19:40;15.50;;;13.40;;
2406;SDS011;37709;53.480;9.688;2023-02-22T17:22:20;16.87;;;14.30;;
2406;SDS011;37709;53.480;9.688;2023-02-22T17:24:48;17.57;;;13.90;;
2406;SDS011;37709;53.480;9.688;2023-02-22T17:27:16;20.53;;;15.10;;
2406;SDS011;37709;53.480;9.688;2023-02-22T17:29:44;18.03;;;14.37;;